Terminal Aerodrome Forecast
Issued by NWS

Home | Current Version | Previous Version | Text Only | Print | Product List | Glossary On
Versions: 1 2 3 4 5 6 7 8 9 10 11 12 13 14 15 16 17
158
FTUS42 KFFC 241607 AAB
TAFPDK
TAF AMD
KPDK 241607Z 2416/2512 32004KT P6SM SCT250
     FM241700 29005KT P6SM FEW050
     FM241900 26007KT P6SM FEW060
     FM242300 23004KT P6SM SKC=

USA.gov is the U.S. government's official web portal to all federal, state and local government web resources and services.